Time;durP1;ratioP1;P1;durP2;ratioP2;P2;SDS_P1;SDS_P2;PMS_P1;PMS_P2;Temp;Humidity;BMP_temperature;BMP_pressure;BME280_temperature;BME280_humidity;BME280_pressure;Samples;Min_cycle;Max_cycle;Signal;HPM_P1;HPM_P2
2022/03/31 00:07:20;;;;;;;;;;;;;;;0.01;70.89;98258.55;447390;1270;193446;-66
2022/03/31 00:17:26;;;;;;;10.70;9.00;;;;;;;-0.01;71.34;98258.63;433485;1270;128344;-65
2022/03/31 00:27:32;;;;;;;12.20;10.10;;;;;;;-0.07;71.42;98248.23;430103;1269;142256;-63
2022/03/31 00:37:37;;;;;;;11.60;10.40;;;;;;;-0.20;71.44;98238.93;447527;1269;142858;-65
2022/03/31 00:47:44;;;;;;;10.60;9.30;;;;;;;-0.22;71.96;98234.05;447477;1269;142235;-66
2022/03/31 00:57:55;;;;;;;12.40;9.80;;;;;;;-0.26;71.97;98233.71;446744;1270;144744;-71
2022/03/31 01:08:02;;;;;;;14.60;13.00;;;;;;;-0.28;72.22;98236.20;431733;1270;142613;-70
2022/03/31 01:18:08;;;;;;;11.50;9.50;;;;;;;-0.29;72.23;98232.79;447487;1270;142859;-70
2022/03/31 01:28:14;;;;;;;11.90;10.70;;;;;;;-0.33;72.41;98231.93;431715;1270;142396;-71
2022/03/31 01:38:20;;;;;;;12.40;10.70;;;;;;;-0.44;72.44;98230.48;442312;1269;145724;-72
2022/03/31 01:48:26;;;;;;;16.80;12.10;;;;;;;-0.46;72.74;98235.39;445348;1269;153405;-71
2022/03/31 01:58:32;;;;;;;14.20;11.10;;;;;;;-0.56;72.65;98235.61;446433;1268;143119;-72
2022/03/31 02:08:38;;;;;;;15.30;13.00;;;;;;;-0.58;72.89;98234.98;447279;1268;144179;-72
2022/03/31 02:18:43;;;;;;;24.60;18.70;;;;;;;-0.66;73.19;98235.81;446961;1270;143212;-73
2022/03/31 02:28:49;;;;;;;13.50;11.00;;;;;;;-0.67;73.25;98240.70;432896;1270;142948;-74
2022/03/31 02:38:55;;;;;;;14.80;11.20;;;;;;;-0.72;73.50;98236.05;434578;1270;142424;-71
2022/03/31 02:49:01;;;;;;;14.60;13.10;;;;;;;-0.82;73.44;98231.29;436239;1269;142693;-71
2022/03/31 02:59:08;;;;;;;12.20;9.60;;;;;;;-0.85;73.60;98232.07;444518;1268;142761;-71
2022/03/31 03:09:12;;;;;;;;;;;;;;;-0.80;73.60;98234.50;444973;1270;142507;-71
2022/03/31 03:19:18;;;;;;;9.50;8.20;;;;;;;-0.79;73.60;98232.56;446985;1269;129835;-72
2022/03/31 03:29:23;;;;;;;10.90;9.70;;;;;;;-0.84;73.43;98225.16;447676;1267;143058;-72
2022/03/31 03:39:30;;;;;;;25.40;14.70;;;;;;;-0.82;73.47;98218.73;446929;1269;142702;-70
2022/03/31 03:49:36;;;;;;;12.20;9.80;;;;;;;-0.85;73.42;98227.27;447652;1268;142251;-72
2022/03/31 03:59:42;;;;;;;12.70;9.10;;;;;;;-0.86;73.67;98236.09;447596;1268;142656;-70
2022/03/31 04:09:47;;;;;;;12.30;9.80;;;;;;;-0.91;73.67;98239.87;446930;1269;142818;-71
2022/03/31 04:19:53;;;;;;;10.70;8.60;;;;;;;-0.90;73.57;98238.66;447631;1269;142654;-72
2022/03/31 04:29:59;;;;;;;11.60;9.80;;;;;;;-0.85;73.68;98242.60;447574;1270;142136;-72
2022/03/31 04:40:06;;;;;;;10.30;9.20;;;;;;;-0.82;73.95;98263.58;444273;1269;146585;-70
2022/03/31 04:50:12;;;;;;;10.80;9.20;;;;;;;-0.89;73.63;98263.00;435747;1270;141569;-70
2022/03/31 05:00:19;;;;;;;11.10;8.40;;;;;;;-0.92;73.92;98260.39;443219;1269;142901;-70
2022/03/31 05:10:25;;;;;;;11.50;9.70;;;;;;;-0.92;73.67;98271.20;436074;1269;141878;-70
2022/03/31 05:20:30;;;;;;;12.30;9.00;;;;;;;-0.93;73.48;98282.92;447642;1269;142638;-72
2022/03/31 05:30:36;;;;;;;14.00;9.10;;;;;;;-0.88;73.51;98296.65;446719;1269;141234;-72
2022/03/31 05:40:42;;;;;;;10.70;8.70;;;;;;;-0.79;73.57;98293.55;445003;1269;142111;-71
2022/03/31 05:50:48;;;;;;;9.60;8.70;;;;;;;-0.69;73.45;98301.77;443290;1269;142294;-71
2022/03/31 06:00:54;;;;;;;10.30;9.30;;;;;;;-0.64;73.21;98304.86;446398;1269;142277;-72
2022/03/31 06:11:00;;;;;;;9.90;8.90;;;;;;;-0.55;72.97;98299.86;438085;1269;141888;-71
2022/03/31 06:21:06;;;;;;;9.50;8.50;;;;;;;-0.51;72.79;98304.51;444711;1269;142037;-72
2022/03/31 06:31:12;;;;;;;8.60;7.40;;;;;;;-0.29;72.98;98302.95;441454;1269;143344;-72
2022/03/31 06:41:18;;;;;;;10.90;8.40;;;;;;;-0.26;72.18;98313.33;447763;1268;142504;-72
2022/03/31 06:51:24;;;;;;;7.70;6.80;;;;;;;-0.26;71.97;98325.56;447041;1268;142546;-72
2022/03/31 07:01:30;;;;;;;9.70;7.00;;;;;;;-0.26;71.71;98331.77;440593;1270;143966;-75
2022/03/31 07:11:38;;;;;;;10.50;7.80;;;;;;;-0.17;71.53;98342.71;447730;1269;142983;-75
2022/03/31 07:21:45;;;;;;;9.80;7.90;;;;;;;-0.00;71.36;98333.45;446841;1269;159552;-73
2022/03/31 07:31:51;;;;;;;9.90;8.40;;;;;;;0.16;71.10;98336.26;436555;1270;141147;-63
2022/03/31 07:41:57;;;;;;;12.00;8.90;;;;;;;0.39;71.18;98343.88;447638;1269;142615;-68
2022/03/31 07:52:04;;;;;;;13.00;10.50;;;;;;;0.79;70.44;98324.27;446983;1267;143294;-65
2022/03/31 08:02:10;;;;;;;12.00;7.40;;;;;;;1.02;69.91;98343.41;446793;1269;143151;-70
2022/03/31 08:12:16;;;;;;;8.00;6.30;;;;;;;1.30;69.36;98351.46;447580;1269;141708;-69
2022/03/31 08:22:23;;;;;;;12.20;7.10;;;;;;;1.12;68.79;98356.39;447739;1269;143240;-74
2022/03/31 08:32:34;;;;;;;8.60;7.50;;;;;;;1.28;68.87;98352.09;447776;1270;144752;-68
2022/03/31 08:42:41;;;;;;;10.90;7.00;;;;;;;1.31;68.42;98370.56;447051;1269;199863;-73
2022/03/31 08:52:47;;;;;;;7.80;6.80;;;;;;;1.59;68.18;98364.46;444291;1268;142948;-67
2022/03/31 09:03:01;;;;;;;8.50;7.00;;;;;;;1.87;67.80;98358.29;443318;1269;141809;-65
2022/03/31 09:13:19;;;;;;;11.80;8.20;;;;;;;2.06;67.22;98368.42;446998;1269;143196;-62
2022/03/31 09:23:28;;;;;;;8.70;7.40;;;;;;;2.46;66.70;98373.77;447791;1268;142860;-62
2022/03/31 09:33:39;;;;;;;7.20;5.90;;;;;;;2.89;66.22;98370.70;446596;1270;144386;-61
2022/03/31 09:43:45;;;;;;;10.10;6.30;;;;;;;2.90;65.52;98374.98;447840;1269;141412;-66
2022/03/31 09:53:53;;;;;;;12.60;7.10;;;;;;;3.01;65.08;98366.14;447745;1269;143081;-61
2022/03/31 10:03:58;;;;;;;10.10;7.80;;;;;;;3.26;65.28;98361.50;446914;1269;143203;-62
2022/03/31 10:14:15;;;;;;;10.60;9.20;;;;;;;3.41;64.39;98380.46;447495;1268;141400;-62
2022/03/31 10:24:42;;;;;;;8.20;5.80;;;;;;;3.43;64.20;98372.54;441172;1270;142017;-66
2022/03/31 10:34:49;;;;;;;7.80;6.60;;;;;;;3.55;64.35;98367.71;447728;1270;141548;-66
2022/03/31 10:45:07;;;;;;;9.30;7.00;;;;;;;3.79;64.06;98360.04;447614;1269;141695;-64
2022/03/31 10:55:18;;;;;;;10.40;7.10;;;;;;;4.15;63.07;98347.13;444451;1268;141934;-67
2022/03/31 11:05:28;;;;;;;9.70;7.50;;;;;;;4.25;62.50;98350.20;436009;1270;141342;-61
2022/03/31 11:15:34;;;;;;;7.80;6.30;;;;;;;4.51;62.35;98345.20;442158;1270;142491;-69
2022/03/31 11:25:45;;;;;;;9.30;6.50;;;;;;;4.52;61.50;98348.44;447687;1270;142713;-63
2022/03/31 11:35:54;;;;;;;8.60;6.70;;;;;;;4.16;61.51;98334.61;447570;1269;141679;-63
2022/03/31 11:46:00;;;;;;;10.70;7.30;;;;;;;4.28;61.60;98327.70;437939;1270;141785;-64
2022/03/31 11:56:10;;;;;;;9.90;7.00;;;;;;;4.44;61.25;98321.05;446023;1270;142445;-64
2022/03/31 12:06:17;;;;;;;7.60;6.60;;;;;;;4.84;60.50;98303.59;447465;1270;230942;-65
2022/03/31 12:16:25;;;;;;;8.60;6.70;;;;;;;5.11;59.66;98293.43;446218;1269;141849;-65
2022/03/31 12:26:31;;;;;;;10.50;6.20;;;;;;;5.29;58.88;98291.77;436828;1270;151078;-64
2022/03/31 12:36:37;;;;;;;10.00;5.90;;;;;;;5.26;58.22;98303.77;439821;1271;141528;-63
2022/03/31 12:46:52;;;;;;;9.70;6.20;;;;;;;5.36;58.02;98289.79;441624;1269;198881;-63
2022/03/31 12:57:01;;;;;;;7.90;6.40;;;;;;;5.41;57.13;98289.98;432619;1270;140194;-66
2022/03/31 13:07:10;;;;;;;;;;;;;;;5.33;56.53;98294.35;442229;1270;146913;-64
2022/03/31 13:17:18;;;;;;;7.30;5.90;;;;;;;5.20;56.29;98293.23;447838;1270;127975;-64
2022/03/31 13:27:23;;;;;;;;;;;;;;;5.20;56.00;98281.27;442894;1269;142063;-64
2022/03/31 13:37:29;;;;;;;8.00;5.40;;;;;;;5.00;55.95;98268.06;447901;1270;128898;-64
2022/03/31 13:47:34;;;;;;;7.40;5.20;;;;;;;4.88;55.37;98255.81;447708;1270;141486;-65
2022/03/31 14:08:10;;;;;;;10.50;6.20;;;;;;;4.65;54.83;98237.61;447297;1269;140437;-64
2022/03/31 14:18:16;;;;;;;6.30;5.30;;;;;;;4.72;54.35;98223.00;447639;1269;142477;-65
2022/03/31 14:28:22;;;;;;;7.20;5.20;;;;;;;4.79;53.66;98206.61;446611;1270;140745;-65
2022/03/31 14:38:30;;;;;;;6.30;4.90;;;;;;;4.82;52.81;98201.91;447671;1270;141417;-65
2022/03/31 14:48:34;;;;;;;;;;;;;;;4.99;52.13;98183.89;446865;1270;195846;-64
2022/03/31 14:58:41;;;;;;;8.20;5.10;;;;;;;5.00;51.39;98171.66;447879;1269;128720;-66
2022/03/31 15:08:47;;;;;;;4.70;4.10;;;;;;;4.87;50.97;98171.77;447666;1269;143415;-65
2022/03/31 15:18:53;;;;;;;5.70;4.20;;;;;;;4.62;50.43;98162.96;446877;1269;142030;-65
2022/03/31 15:28:59;;;;;;;5.40;3.80;;;;;;;4.54;50.02;98171.42;447664;1269;142886;-65
2022/03/31 15:39:05;;;;;;;6.50;4.40;;;;;;;4.50;49.14;98159.48;440024;1270;140356;-64
2022/03/31 15:49:31;;;;;;;6.20;4.80;;;;;;;4.42;48.87;98157.07;442766;1269;140846;-65
2022/03/31 15:59:37;;;;;;;6.70;4.70;;;;;;;4.34;48.74;98157.73;445696;1268;140930;-66
2022/03/31 16:09:43;;;;;;;7.50;6.00;;;;;;;4.20;47.93;98162.00;430543;1270;141144;-64
2022/03/31 16:19:49;;;;;;;6.70;4.90;;;;;;;4.08;47.99;98170.18;443369;1269;141401;-65
2022/03/31 16:29:55;;;;;;;11.40;4.80;;;;;;;3.99;47.78;98171.61;447766;1268;141299;-66
2022/03/31 16:40:01;;;;;;;10.50;5.30;;;;;;;3.90;48.04;98165.38;447016;1269;141895;-66
2022/03/31 16:50:08;;;;;;;9.60;6.00;;;;;;;3.79;47.87;98167.92;444989;1269;142733;-64
2022/03/31 17:00:15;;;;;;;11.50;6.00;;;;;;;3.71;47.91;98173.55;443788;1269;140706;-65
2022/03/31 17:10:22;;;;;;;6.50;5.00;;;;;;;3.61;48.09;98176.20;446750;1269;143326;-65
2022/03/31 17:20:28;;;;;;;8.50;5.00;;;;;;;3.54;48.17;98177.98;441488;1270;140514;-64
2022/03/31 17:30:34;;;;;;;9.40;6.10;;;;;;;3.51;48.41;98190.44;444273;1270;145068;-66
2022/03/31 17:40:40;;;;;;;10.60;7.00;;;;;;;3.49;48.49;98191.10;440009;1270;142316;-63
2022/03/31 17:50:47;;;;;;;10.80;6.50;;;;;;;3.47;48.35;98188.25;447692;1269;142210;-60
2022/03/31 18:00:53;;;;;;;8.10;4.70;;;;;;;3.45;47.81;98188.87;446551;1269;141968;-59
2022/03/31 18:11:03;;;;;;;11.80;4.30;;;;;;;3.44;46.90;98193.10;447603;1269;141204;-59
2022/03/31 18:21:10;;;;;;;4.60;3.30;;;;;;;3.42;45.89;98196.35;447765;1269;141629;-60
2022/03/31 18:41:55;;;;;;;6.80;3.30;;;;;;;3.35;45.22;98191.89;444239;1270;140617;-60
2022/03/31 18:52:01;;;;;;;5.70;3.30;;;;;;;3.30;44.92;98198.89;446906;1269;140920;-59
2022/03/31 19:02:09;;;;;;;7.50;4.70;;;;;;;3.26;44.67;98191.70;440913;1270;140672;-60
2022/03/31 19:12:16;;;;;;;6.90;4.80;;;;;;;3.22;44.39;98196.75;431031;1270;141173;-58
2022/03/31 19:22:22;;;;;;;6.10;3.80;;;;;;;3.15;44.10;98197.99;446701;1270;141550;-61
2022/03/31 19:32:28;;;;;;;7.10;4.20;;;;;;;3.12;44.21;98193.35;447409;1270;141262;-59
2022/03/31 19:42:34;;;;;;;6.40;4.10;;;;;;;3.10;44.01;98194.49;446900;1268;141701;-60
2022/03/31 19:52:40;;;;;;;8.30;5.40;;;;;;;3.06;43.87;98193.83;447577;1267;141868;-60
2022/03/31 20:02:46;;;;;;;19.40;12.20;;;;;;;2.98;44.20;98185.41;447517;1270;141881;-60
2022/03/31 20:12:52;;;;;;;8.50;6.10;;;;;;;2.85;44.52;98189.08;441712;1269;141438;-59
2022/03/31 20:22:58;;;;;;;12.30;9.80;;;;;;;2.71;44.29;98175.34;447527;1269;142336;-59
2022/03/31 20:33:05;;;;;;;10.80;5.80;;;;;;;2.60;44.43;98164.55;441906;1269;140950;-60
2022/03/31 20:43:11;;;;;;;9.90;6.10;;;;;;;2.50;44.46;98153.14;446948;1269;141549;-58
2022/03/31 20:53:18;;;;;;;15.50;6.30;;;;;;;2.42;44.56;98140.63;433343;1269;141634;-59
2022/03/31 21:03:25;;;;;;;7.40;4.30;;;;;;;2.33;44.59;98128.44;434085;1270;142822;-57
2022/03/31 21:13:31;;;;;;;6.50;3.80;;;;;;;2.27;44.52;98130.19;446920;1270;142610;-58
2022/03/31 21:23:38;;;;;;;7.40;5.50;;;;;;;2.22;44.55;98125.77;431775;1270;140919;-59
2022/03/31 21:33:45;;;;;;;7.20;4.10;;;;;;;2.15;44.75;98128.54;437047;1270;141790;-59
2022/03/31 21:43:51;;;;;;;9.00;4.80;;;;;;;2.11;44.57;98116.84;437113;1270;141013;-62
2022/03/31 21:53:57;;;;;;;8.20;3.70;;;;;;;2.07;44.77;98103.43;440604;1269;140882;-59
2022/03/31 22:04:04;;;;;;;8.10;4.60;;;;;;;2.03;44.67;98101.05;436818;1270;141417;-60
2022/03/31 22:14:13;;;;;;;6.70;4.10;;;;;;;2.00;44.73;98097.44;442286;1269;143194;-60
2022/03/31 22:24:21;;;;;;;7.80;4.20;;;;;;;1.98;44.74;98090.27;437118;1269;143181;-60
2022/03/31 22:34:29;;;;;;;5.10;3.90;;;;;;;1.93;44.78;98081.17;434171;1270;140710;-61
2022/03/31 22:44:35;;;;;;;5.10;4.20;;;;;;;1.89;44.81;98077.40;443119;1270;141210;-60
2022/03/31 22:54:41;;;;;;;5.30;3.00;;;;;;;1.86;45.05;98078.81;445641;1269;142321;-61
2022/03/31 23:04:47;;;;;;;3.90;2.40;;;;;;;1.84;45.65;98077.52;440561;1270;142353;-58
2022/03/31 23:14:53;;;;;;;5.90;3.10;;;;;;;1.79;46.24;98074.30;440170;1269;142135;-60
2022/03/31 23:24:59;;;;;;;5.80;3.20;;;;;;;1.73;46.51;98072.59;446987;1269;141614;-59
2022/03/31 23:35:06;;;;;;;3.00;2.10;;;;;;;1.68;46.83;98072.32;432514;1270;140831;-60
2022/03/31 23:45:12;;;;;;;4.50;3.10;;;;;;;1.55;47.47;98066.23;447607;1270;141682;-62
2022/03/31 23:55:19;;;;;;;4.00;2.60;;;;;;;1.44;48.00;98063.52;446994;1269;142638;-61
